Time;durP1;ratioP1;P1;durP2;ratioP2;P2;SDS_P1;SDS_P2;PMS_P1;PMS_P2;Temp;Humidity;BMP_temperature;BMP_pressure;BME280_temperature;BME280_humidity;BME280_pressure;Samples;Min_cycle;Max_cycle;Signal;HPM_P1;HPM_P2
2022/10/21 00:00:25;;;;;;;7.40;5.80;;;12.70;99.90;;;;;;4955075;28;20039;-83
2022/10/21 00:02:51;;;;;;;8.18;6.32;;;12.70;99.90;;;;;;4981193;28;20027;-84
2022/10/21 00:05:16;;;;;;;8.13;6.57;;;12.80;99.90;;;;;;4987098;28;20448;-83
2022/10/21 00:07:42;;;;;;;10.48;6.35;;;12.80;99.90;;;;;;4985012;28;20575;-84
2022/10/21 00:10:09;;;;;;;7.15;6.07;;;12.90;99.90;;;;;;4968636;28;20035;-83
2022/10/21 00:12:35;;;;;;;16.05;7.53;;;12.90;99.90;;;;;;4968180;28;20388;-83
2022/10/21 00:15:03;;;;;;;10.00;6.63;;;12.90;99.90;;;;;;4967844;28;20091;-83
2022/10/21 00:17:29;;;;;;;10.27;6.53;;;13.00;99.90;;;;;;4965562;28;20066;-83
2022/10/21 00:19:55;;;;;;;9.68;6.22;;;13.00;99.90;;;;;;4982817;28;20070;-82
2022/10/21 00:22:20;;;;;;;8.13;6.30;;;13.00;99.90;;;;;;4983975;28;20088;-84
2022/10/21 00:24:46;;;;;;;7.07;5.57;;;13.10;99.90;;;;;;4983880;28;20077;-85
2022/10/21 00:27:12;;;;;;;6.93;5.90;;;13.10;99.90;;;;;;4983818;28;20023;-83
2022/10/21 00:29:37;;;;;;;7.10;5.88;;;13.10;99.90;;;;;;4965938;28;20084;-82
2022/10/21 00:32:03;;;;;;;7.03;5.80;;;13.10;99.90;;;;;;4984727;28;20034;-82
2022/10/21 00:34:30;;;;;;;6.00;5.32;;;13.10;99.90;;;;;;4982873;28;20033;-84
2022/10/21 00:36:55;;;;;;;6.65;5.88;;;13.10;99.90;;;;;;4982083;28;20377;-82
2022/10/21 00:39:21;;;;;;;8.48;5.45;;;13.20;99.90;;;;;;4982880;28;20126;-84
2022/10/21 00:41:47;;;;;;;7.15;5.85;;;13.20;99.90;;;;;;4966015;28;20024;-84
2022/10/21 00:44:14;;;;;;;6.10;5.35;;;13.20;99.90;;;;;;4965918;29;20038;-83
2022/10/21 00:46:46;;;;;;;8.10;5.65;;;13.20;99.90;;;;;;4959660;28;20086;-84
2022/10/21 00:49:16;;;;;;;5.85;5.20;;;13.20;99.90;;;;;;4962307;29;20055;-83
2022/10/21 00:51:46;;;;;;;6.95;5.47;;;13.20;99.90;;;;;;4963735;28;20039;-84
2022/10/21 00:54:12;;;;;;;6.22;5.28;;;13.20;99.90;;;;;;4944187;29;20031;-84
2022/10/21 00:56:40;;;;;;;6.47;5.30;;;13.30;99.90;;;;;;4962924;29;20031;-84
2022/10/21 00:59:06;;;;;;;6.43;4.68;;;13.30;99.90;;;;;;4956645;28;20074;-83
2022/10/21 01:01:32;;;;;;;5.85;5.28;;;13.30;99.90;;;;;;4986509;28;20019;-82
2022/10/21 01:04:00;;;;;;;6.68;5.07;;;13.30;99.90;;;;;;4971684;28;20050;-82
2022/10/21 01:06:26;;;;;;;5.75;5.07;;;13.30;99.90;;;;;;4962384;29;20087;-83
2022/10/21 01:08:54;;;;;;;5.68;4.55;;;13.30;99.90;;;;;;4964219;29;20027;-84
2022/10/21 01:11:21;;;;;;;4.78;4.30;;;13.40;99.90;;;;;;4946307;28;20063;-84
2022/10/21 01:14:24;;;;;;;5.13;4.32;;;13.30;99.90;;;;;;4944420;29;20555;-84
2022/10/21 01:17:02;;;;;;;3.70;3.35;;;13.40;99.90;;;;;;4964494;29;20047;-83
2022/10/21 01:19:51;;;;;;;3.92;3.50;;;13.40;99.90;;;;;;4990379;28;20042;-82
2022/10/21 01:22:53;;;;;;;5.22;4.28;;;13.40;99.90;;;;;;4975585;28;20020;-84
2022/10/21 01:25:19;;;;;;;5.32;4.80;;;13.40;99.90;;;;;;4968373;28;20110;-82
2022/10/21 01:28:01;;;;;;;10.75;6.70;;;13.40;99.90;;;;;;4974289;29;20491;-83
2022/10/21 01:31:04;;;;;;;10.10;6.28;;;13.40;99.90;;;;;;4994276;28;20038;-84
2022/10/21 01:33:59;;;;;;;;;;;13.40;99.90;;;;;;4981955;28;20130;-83
2022/10/21 01:36:45;;;;;;;11.82;7.07;;;13.40;99.90;;;;;;4969038;28;19910;-83
2022/10/21 01:39:51;;;;;;;8.15;6.20;;;13.30;99.90;;;;;;4979680;28;20097;-81
2022/10/21 01:42:35;;;;;;;10.55;6.68;;;13.30;99.90;;;;;;4981029;28;20098;-84
2022/10/21 01:45:07;;;;;;;7.53;6.15;;;13.30;99.90;;;;;;4985267;28;20029;-82
2022/10/21 01:47:38;;;;;;;6.00;5.18;;;13.30;99.90;;;;;;4967976;28;20035;-84
2022/10/21 01:50:13;;;;;;;9.52;5.60;;;13.30;99.90;;;;;;4961092;28;20085;-83
2022/10/21 01:52:51;;;;;;;10.77;6.93;;;13.30;99.90;;;;;;4964010;28;20042;-84
2022/10/21 01:55:21;;;;;;;9.85;6.72;;;13.30;99.90;;;;;;4983506;28;20038;-83
2022/10/21 01:57:56;;;;;;;7.15;6.30;;;13.20;99.90;;;;;;4983374;28;20031;-84
2022/10/21 02:00:21;;;;;;;7.75;5.88;;;13.20;99.90;;;;;;4991644;28;20039;-83
2022/10/21 02:02:48;;;;;;;6.47;5.70;;;13.20;99.90;;;;;;4992268;28;20057;-83
2022/10/21 02:05:19;;;;;;;8.95;6.30;;;13.20;99.90;;;;;;4960939;28;20106;-82
2022/10/21 02:07:46;;;;;;;6.97;5.53;;;13.20;99.90;;;;;;4978072;28;20268;-81
2022/10/21 02:10:12;;;;;;;6.22;5.57;;;13.10;99.90;;;;;;4988498;28;20019;-81
2022/10/21 02:12:41;;;;;;;14.73;7.35;;;13.20;99.90;;;;;;4997620;28;20065;-82
2022/10/21 02:15:09;;;;;;;8.38;6.82;;;13.20;99.90;;;;;;4996638;28;20050;-82
2022/10/21 02:17:43;;;;;;;8.70;6.07;;;13.20;99.90;;;;;;4997125;28;20050;-84
2022/10/21 02:20:14;;;;;;;8.27;6.10;;;13.20;99.90;;;;;;4997740;28;20061;-82
2022/10/21 02:22:42;;;;;;;6.93;6.22;;;13.10;99.90;;;;;;4988699;28;20034;-83
2022/10/21 02:25:30;;;;;;;7.82;5.72;;;13.10;99.90;;;;;;4981375;28;20061;-84
2022/10/21 02:27:55;;;;;;;8.00;5.35;;;13.10;99.90;;;;;;4970195;28;20031;-84
2022/10/21 02:30:21;;;;;;;7.43;6.03;;;13.10;99.90;;;;;;4977197;28;20029;-83
2022/10/21 02:33:02;;;;;;;6.70;5.90;;;13.00;99.90;;;;;;4996298;28;20335;-83
2022/10/21 02:35:35;;;;;;;6.63;5.68;;;13.00;99.90;;;;;;4978444;28;20031;-84
2022/10/21 02:38:30;;;;;;;9.65;6.85;;;13.00;99.90;;;;;;4981238;28;20098;-83
2022/10/21 02:41:01;;;;;;;6.97;5.88;;;13.00;99.90;;;;;;4966548;28;20051;-83
2022/10/21 02:43:31;;;;;;;9.30;5.90;;;13.00;99.90;;;;;;4977179;28;20094;-81
2022/10/21 02:46:09;;;;;;;7.82;6.70;;;13.00;99.90;;;;;;4961569;29;20028;-82
2022/10/21 02:48:36;;;;;;;7.72;6.28;;;13.00;99.90;;;;;;4974510;28;20154;-84
2022/10/21 02:51:04;;;;;;;6.90;5.40;;;13.00;99.90;;;;;;4961861;28;20036;-83
2022/10/21 02:53:30;;;;;;;9.45;6.60;;;13.00;99.90;;;;;;4994462;28;20030;-82
2022/10/21 02:55:55;;;;;;;11.68;6.95;;;13.00;99.90;;;;;;4998327;28;20031;-82
2022/10/21 02:58:21;;;;;;;9.48;6.45;;;13.00;99.90;;;;;;4997888;28;20438;-83
2022/10/21 03:00:47;;;;;;;8.80;6.57;;;13.00;99.90;;;;;;4992805;28;20035;-83
2022/10/21 03:03:12;;;;;;;10.38;7.20;;;12.90;99.90;;;;;;4991981;28;20035;-84
2022/10/21 03:05:44;;;;;;;7.18;5.78;;;12.90;99.90;;;;;;4984860;28;20030;-84
2022/10/21 03:08:10;;;;;;;9.55;5.88;;;12.90;99.90;;;;;;4966048;28;20057;-83
2022/10/21 03:11:49;;;;;;;7.65;5.93;;;12.90;99.90;;;;;;4983124;28;20035;-83
2022/10/21 03:14:16;;;;;;;11.13;7.65;;;12.80;99.90;;;;;;4941987;28;20062;-83
2022/10/21 03:16:42;;;;;;;8.63;7.18;;;12.90;99.90;;;;;;4984503;28;20057;-84
2022/10/21 03:19:11;;;;;;;7.53;6.47;;;12.80;99.90;;;;;;4983827;28;20494;-83
2022/10/21 03:21:37;;;;;;;9.02;6.03;;;12.90;99.90;;;;;;4964065;28;20088;-83
2022/10/21 03:24:03;;;;;;;5.95;5.35;;;12.80;99.90;;;;;;4963461;28;20032;-83
2022/10/21 03:26:29;;;;;;;5.40;4.90;;;12.90;99.90;;;;;;4963636;28;20023;-81
2022/10/21 03:28:55;;;;;;;5.25;4.65;;;12.90;99.90;;;;;;4971272;28;20034;-83
2022/10/21 03:31:21;;;;;;;6.25;5.07;;;12.90;99.90;;;;;;4966830;28;20031;-82
2022/10/21 03:33:47;;;;;;;5.80;5.18;;;12.90;99.90;;;;;;4968004;28;20681;-83
2022/10/21 03:36:13;;;;;;;7.45;5.03;;;13.00;99.90;;;;;;4951025;29;20058;-81
2022/10/21 03:38:39;;;;;;;6.18;5.22;;;13.00;99.90;;;;;;4964191;28;20027;-81
2022/10/21 03:41:05;;;;;;;7.50;6.35;;;13.00;99.90;;;;;;4965221;29;20061;-79
2022/10/21 03:43:31;;;;;;;6.90;4.97;;;13.10;99.90;;;;;;4963315;28;20023;-80
2022/10/21 03:45:57;;;;;;;7.13;5.50;;;13.10;99.90;;;;;;4967990;28;20035;-80
2022/10/21 03:48:25;;;;;;;6.13;5.10;;;13.10;99.90;;;;;;4966570;28;20023;-81
2022/10/21 03:50:55;;;;;;;10.52;6.28;;;13.20;99.90;;;;;;4973614;28;20027;-80
2022/10/21 03:53:25;;;;;;;9.95;6.30;;;13.20;99.90;;;;;;4953563;29;20039;-81
2022/10/21 03:55:54;;;;;;;6.68;5.55;;;13.20;99.90;;;;;;4955189;28;20498;-81
2022/10/21 03:58:20;;;;;;;8.68;5.60;;;13.20;99.90;;;;;;4961689;28;20030;-80
2022/10/21 04:00:51;;;;;;;5.40;4.68;;;13.30;99.90;;;;;;4957679;28;20051;-79
2022/10/21 04:03:34;;;;;;;5.88;5.00;;;13.30;99.90;;;;;;4953907;29;20038;-80
2022/10/21 04:06:11;;;;;;;6.35;4.97;;;13.30;99.90;;;;;;4962299;28;20070;-81
2022/10/21 04:08:40;;;;;;;9.88;4.95;;;13.30;99.90;;;;;;4977979;28;20023;-81
2022/10/21 04:11:27;;;;;;;7.03;4.82;;;13.30;99.90;;;;;;4942531;29;20033;-81
2022/10/21 04:13:55;;;;;;;7.07;4.90;;;13.30;99.90;;;;;;4939325;29;20027;-81
2022/10/21 04:16:22;;;;;;;5.22;4.55;;;13.30;99.90;;;;;;4962245;29;20029;-80
2022/10/21 04:18:48;;;;;;;7.18;4.82;;;13.30;99.90;;;;;;4961391;28;20041;-81
2022/10/21 04:21:15;;;;;;;9.57;5.93;;;13.30;99.90;;;;;;4960003;29;20023;-81
2022/10/21 04:23:42;;;;;;;6.75;5.00;;;13.30;99.90;;;;;;4973223;28;20508;-81
2022/10/21 04:26:11;;;;;;;7.13;5.13;;;13.20;99.90;;;;;;4965776;28;20041;-81
2022/10/21 04:28:38;;;;;;;10.23;5.43;;;13.20;99.90;;;;;;4966373;28;20286;-81
2022/10/21 04:31:04;;;;;;;8.43;5.97;;;13.20;99.90;;;;;;4947114;28;20169;-80
2022/10/21 04:33:30;;;;;;;10.60;5.55;;;13.30;99.90;;;;;;4981051;28;20086;-80
2022/10/21 04:35:57;;;;;;;8.52;5.40;;;13.30;99.90;;;;;;4961655;28;20031;-80
2022/10/21 04:38:24;;;;;;;9.85;5.57;;;13.30;99.90;;;;;;4963526;28;20034;-80
2022/10/21 04:41:01;;;;;;;7.40;4.95;;;13.30;99.90;;;;;;4999134;28;20030;-81
2022/10/21 04:43:28;;;;;;;6.97;4.72;;;13.30;99.90;;;;;;4997754;28;20083;-82
2022/10/21 04:45:53;;;;;;;5.47;4.28;;;13.20;99.90;;;;;;4996558;28;20023;-80
2022/10/21 04:48:20;;;;;;;9.90;5.15;;;13.20;99.90;;;;;;4977919;28;20022;-80
2022/10/21 04:50:53;;;;;;;5.15;4.65;;;13.20;99.90;;;;;;4966809;28;20035;-81
2022/10/21 04:53:20;;;;;;;7.53;4.03;;;13.10;99.90;;;;;;4983685;28;20026;-81
2022/10/21 04:55:50;;;;;;;8.38;4.88;;;13.10;99.90;;;;;;4968223;28;20054;-82
2022/10/21 04:58:15;;;;;;;8.00;5.03;;;13.10;99.90;;;;;;4980667;28;20027;-81
2022/10/21 05:00:41;;;;;;;5.90;4.65;;;13.00;99.90;;;;;;4976565;28;20062;-81
2022/10/21 05:03:06;;;;;;;5.75;4.97;;;13.00;99.90;;;;;;4980427;28;20117;-81
2022/10/21 05:05:35;;;;;;;6.47;4.90;;;12.90;99.90;;;;;;4977671;28;20035;-81
2022/10/21 05:08:01;;;;;;;9.07;5.13;;;12.90;99.90;;;;;;4949079;29;20070;-81
2022/10/21 05:10:29;;;;;;;6.18;4.78;;;12.80;99.90;;;;;;4955915;28;20022;-80
2022/10/21 05:12:57;;;;;;;5.10;4.60;;;12.80;99.90;;;;;;4969783;28;20031;-79
2022/10/21 05:15:26;;;;;;;27.65;7.18;;;12.80;99.90;;;;;;4969695;28;20173;-80
2022/10/21 05:17:52;;;;;;;5.40;4.53;;;12.80;99.90;;;;;;4964405;28;20034;-81
2022/10/21 05:20:19;;;;;;;4.32;3.90;;;12.80;99.90;;;;;;4987890;28;20099;-80
2022/10/21 05:22:45;;;;;;;7.47;5.20;;;12.80;99.90;;;;;;4991639;28;20022;-80
2022/10/21 05:25:10;;;;;;;11.48;5.47;;;12.80;99.90;;;;;;4962258;28;20029;-80
2022/10/21 05:27:37;;;;;;;9.05;5.05;;;12.80;99.90;;;;;;4980617;28;20035;-81
2022/10/21 05:30:03;;;;;;;8.32;5.30;;;12.80;99.90;;;;;;4962093;28;20033;-80
2022/10/21 05:32:29;;;;;;;12.82;4.63;;;12.80;99.90;;;;;;4978801;28;20471;-81
2022/10/21 05:34:55;;;;;;;4.65;4.15;;;12.80;99.90;;;;;;4980608;28;20054;-80
2022/10/21 05:37:21;;;;;;;5.55;4.53;;;12.70;99.90;;;;;;4966273;28;20041;-81
2022/10/21 05:39:47;;;;;;;7.20;4.70;;;12.70;99.90;;;;;;4975607;28;20029;-81
2022/10/21 05:42:40;;;;;;;14.35;5.85;;;12.70;99.90;;;;;;4982411;28;20022;-81
2022/10/21 05:45:06;;;;;;;9.93;6.15;;;12.70;99.90;;;;;;4983001;28;20036;-81
2022/10/21 05:47:33;;;;;;;8.57;5.22;;;12.80;99.90;;;;;;4975168;28;20019;-81
2022/10/21 05:49:58;;;;;;;7.10;4.95;;;12.90;99.90;;;;;;4960185;28;20031;-80
2022/10/21 05:52:24;;;;;;;8.25;5.05;;;12.90;99.90;;;;;;4952121;28;20027;-80
2022/10/21 05:54:53;;;;;;;5.95;4.68;;;12.90;99.90;;;;;;4980175;28;20341;-80
2022/10/21 05:57:18;;;;;;;5.65;4.45;;;12.90;99.90;;;;;;4976801;28;20042;-80
2022/10/21 05:59:44;;;;;;;8.02;5.18;;;12.90;99.90;;;;;;4979641;28;20429;-81
2022/10/21 06:02:10;;;;;;;8.18;5.10;;;13.00;99.90;;;;;;4969556;28;20099;-80
2022/10/21 06:04:36;;;;;;;9.18;5.95;;;13.00;99.90;;;;;;4991001;28;20082;-80
2022/10/21 06:07:01;;;;;;;6.30;5.15;;;13.00;99.90;;;;;;4973772;28;20038;-80
2022/10/21 06:09:27;;;;;;;8.13;5.63;;;13.00;99.90;;;;;;4978329;28;20117;-81
2022/10/21 06:11:53;;;;;;;8.63;5.20;;;13.00;99.90;;;;;;5008340;28;20029;-79
2022/10/21 06:14:19;;;;;;;9.63;5.28;;;13.00;99.90;;;;;;4992050;28;20030;-81
2022/10/21 06:16:45;;;;;;;10.25;6.07;;;13.10;99.90;;;;;;4980807;28;20035;-82
2022/10/21 06:19:10;;;;;;;14.43;6.78;;;13.10;99.90;;;;;;4981173;28;20444;-81
2022/10/21 06:21:36;;;;;;;8.25;5.95;;;13.10;99.90;;;;;;4978462;28;20077;-82
2022/10/21 06:24:16;;;;;;;10.65;6.28;;;13.10;99.90;;;;;;4962407;29;20029;-82
2022/10/21 06:26:41;;;;;;;9.02;5.53;;;13.10;99.90;;;;;;4943433;29;20129;-83
2022/10/21 06:29:07;;;;;;;9.25;6.18;;;13.10;99.90;;;;;;4972982;28;20038;-81
2022/10/21 06:31:38;;;;;;;10.07;5.97;;;13.10;99.90;;;;;;4981335;28;20443;-81
2022/10/21 06:34:04;;;;;;;8.27;6.38;;;13.10;99.90;;;;;;4980640;28;20065;-80
2022/10/21 06:36:33;;;;;;;7.35;5.95;;;13.20;99.90;;;;;;4983207;28;20028;-82
2022/10/21 06:39:03;;;;;;;10.02;6.78;;;13.20;99.90;;;;;;4980995;28;20035;-82
2022/10/21 06:41:41;;;;;;;11.32;6.30;;;13.20;99.90;;;;;;4966258;28;20042;-82
2022/10/21 06:47:26;;;;;;;10.48;6.40;;;13.50;99.90;;;;;;4960586;29;20114;-82
2022/10/21 06:49:51;;;;;;;12.77;6.38;;;13.50;99.90;;;;;;4949686;28;20042;-81
2022/10/21 06:52:17;;;;;;;11.50;7.05;;;13.60;99.90;;;;;;4963867;28;20027;-82
2022/10/21 06:54:43;;;;;;;11.18;7.25;;;13.60;99.90;;;;;;4980646;28;20098;-82
2022/10/21 06:57:08;;;;;;;12.13;6.53;;;13.60;99.90;;;;;;4963601;28;20027;-81
2022/10/21 06:59:40;;;;;;;12.73;7.53;;;13.60;99.90;;;;;;4964182;28;20099;-82
2022/10/21 07:02:24;;;;;;;10.40;6.33;;;13.60;99.90;;;;;;4964255;28;20035;-82
2022/10/21 07:04:54;;;;;;;8.60;6.03;;;13.60;99.90;;;;;;4964321;28;20093;-82
2022/10/21 07:07:20;;;;;;;8.00;5.70;;;13.60;99.90;;;;;;4963768;28;20031;-82
2022/10/21 07:09:46;;;;;;;8.52;6.00;;;13.70;99.90;;;;;;4981783;28;20022;-82
2022/10/21 07:12:32;;;;;;;8.90;6.07;;;13.60;99.90;;;;;;4981340;28;20034;-82
2022/10/21 07:15:05;;;;;;;11.43;7.28;;;13.70;99.90;;;;;;4968594;28;20392;-82
2022/10/21 07:17:44;;;;;;;;;;;;;;;;;;;;;
2022/10/21 07:20:13;;;;;;;8.98;6.03;;;13.80;99.90;;;;;;4985833;28;20121;-82
2022/10/21 07:22:39;;;;;;;11.00;6.78;;;13.90;99.90;;;;;;4966816;28;20035;-81
2022/10/21 07:25:07;;;;;;;9.45;5.63;;;13.90;99.90;;;;;;4986328;28;20062;-82
2022/10/21 07:27:33;;;;;;;8.57;6.03;;;13.90;99.90;;;;;;4986726;28;20057;-82
2022/10/21 07:29:59;;;;;;;8.18;5.78;;;13.90;99.90;;;;;;4987433;28;20067;-81
2022/10/21 07:32:32;;;;;;;8.93;5.88;;;13.90;99.90;;;;;;4989291;28;20014;-82
2022/10/21 07:35:06;;;;;;;9.75;5.80;;;14.00;99.90;;;;;;4996576;28;20090;-82
2022/10/21 07:37:34;;;;;;;10.55;6.25;;;14.00;99.90;;;;;;4978377;28;20022;-80
2022/10/21 07:40:00;;;;;;;7.18;5.22;;;14.00;99.90;;;;;;4996510;28;20026;-81
2022/10/21 07:42:30;;;;;;;7.55;5.57;;;14.10;99.90;;;;;;4996594;28;20027;-82
2022/10/21 07:44:58;;;;;;;9.95;5.90;;;14.20;99.90;;;;;;4970298;28;20029;-82
2022/10/21 07:47:27;;;;;;;7.55;4.95;;;14.20;99.90;;;;;;4969135;28;20037;-81
2022/10/21 07:49:56;;;;;;;7.13;5.70;;;14.30;99.90;;;;;;4969730;28;20388;-81
2022/10/21 07:52:22;;;;;;;11.75;5.45;;;14.40;99.90;;;;;;4969591;28;20102;-83
2022/10/21 07:54:48;;;;;;;7.85;5.70;;;14.50;99.90;;;;;;4971057;28;20047;-83
2022/10/21 07:57:22;;;;;;;7.97;5.03;;;14.60;99.90;;;;;;4987318;28;20022;-81
2022/10/21 07:59:48;;;;;;;13.45;5.35;;;14.70;99.90;;;;;;4968164;28;20035;-82
2022/10/21 08:06:07;;;;;;;7.47;4.50;;;14.90;99.90;;;;;;4964807;28;20027;-82
2022/10/21 08:09:15;;;;;;;8.48;4.57;;;15.10;99.90;;;;;;4976998;28;20019;-81
2022/10/21 08:12:08;;;;;;;6.13;4.43;;;15.20;99.90;;;;;;4951056;28;20046;-82
2022/10/21 08:14:38;;;;;;;5.82;4.35;;;15.40;99.90;;;;;;4950153;28;20031;-81
2022/10/21 08:18:28;;;;;;;;;;;;;;;;;;;;;
2022/10/21 08:20:22;;;;;;;6.80;4.13;;;15.60;99.90;;;;;;4973626;28;20057;-87
2022/10/21 08:25:56;;;;;;;11.25;4.55;;;15.80;99.80;;;;;;4973146;28;20138;-85
2022/10/21 08:28:31;;;;;;;8.93;4.53;;;16.00;99.60;;;;;;4948849;29;20107;-86
2022/10/21 08:31:12;;;;;;;6.97;4.40;;;16.10;99.00;;;;;;4963516;28;20058;-86
2022/10/21 08:33:43;;;;;;;7.20;4.35;;;16.20;98.80;;;;;;4962440;29;20377;-85
2022/10/21 08:36:33;;;;;;;9.48;4.13;;;16.30;98.00;;;;;;4946172;29;20113;-84
2022/10/21 08:39:37;;;;;;;6.97;4.00;;;16.40;98.10;;;;;;4945387;29;20061;-86
2022/10/21 08:42:43;;;;;;;8.80;4.03;;;16.60;97.20;;;;;;4934589;29;20138;-84
2022/10/21 08:45:16;;;;;;;6.07;4.03;;;16.50;96.70;;;;;;4962896;29;20130;-85
2022/10/21 08:51:51;;;;;;;3.85;3.40;;;16.30;96.70;;;;;;4897637;29;20028;-84
2022/10/21 08:55:07;;;;;;;;;;;;;;;;;;;;;
2022/10/21 08:57:47;;;;;;;6.10;3.70;;;16.40;95.90;;;;;;4995371;23;20122;-85
2022/10/21 09:00:29;;;;;;;5.43;3.35;;;16.50;96.00;;;;;;4965230;28;20113;-84
2022/10/21 09:03:16;;;;;;;13.07;4.10;;;16.60;96.00;;;;;;4966192;28;20109;-85
2022/10/21 09:05:42;;;;;;;8.70;4.20;;;16.60;95.30;;;;;;4951864;28;20032;-85
2022/10/21 09:08:16;;;;;;;6.65;3.65;;;16.60;95.10;;;;;;4963323;28;20427;-85
2022/10/21 09:11:02;;;;;;;5.00;3.78;;;16.50;95.10;;;;;;4965360;28;20104;-84
2022/10/21 09:13:28;;;;;;;6.82;3.55;;;16.30;95.40;;;;;;4962171;28;20026;-85
2022/10/21 09:16:11;;;;;;;3.53;2.90;;;16.30;95.60;;;;;;4950959;29;20023;-85
2022/10/21 09:18:49;;;;;;;;;;;16.30;95.70;;;;;;4960286;29;20038;-85
2022/10/21 09:21:17;;;;;;;6.85;3.38;;;16.30;95.60;;;;;;4958932;29;19966;-83
2022/10/21 09:24:02;;;;;;;6.35;3.10;;;16.30;95.50;;;;;;4958956;29;20641;-85
2022/10/21 09:26:30;;;;;;;5.13;3.08;;;16.40;95.40;;;;;;4950007;29;20022;-84
2022/10/21 09:29:16;;;;;;;7.95;3.80;;;16.40;95.40;;;;;;4972980;28;20034;-85
2022/10/21 09:31:42;;;;;;;4.72;3.13;;;16.40;95.30;;;;;;4982867;28;20042;-83
2022/10/21 09:34:20;;;;;;;5.65;3.25;;;16.40;95.40;;;;;;4988553;28;20037;-83
2022/10/21 09:36:47;;;;;;;5.53;3.40;;;16.40;95.60;;;;;;4982757;28;20030;-84
2022/10/21 09:39:29;;;;;;;5.90;3.50;;;16.50;95.90;;;;;;4983063;28;20035;-84
2022/10/21 09:41:57;;;;;;;10.17;3.80;;;16.50;96.00;;;;;;4961507;28;20052;-82
2022/10/21 09:44:31;;;;;;;10.77;4.32;;;16.60;96.30;;;;;;4960766;28;20030;-80
2022/10/21 09:47:35;;;;;;;7.75;4.05;;;16.50;96.70;;;;;;4974712;28;20034;-82
2022/10/21 09:50:27;;;;;;;6.00;4.03;;;16.50;97.10;;;;;;4937020;29;20108;-80
2022/10/21 09:53:11;;;;;;;7.43;4.18;;;16.30;97.50;;;;;;4923953;29;20122;-81
2022/10/21 09:55:54;;;;;;;10.52;5.28;;;16.30;98.10;;;;;;4950703;29;20090;-80
2022/10/21 09:58:35;;;;;;;17.25;5.53;;;16.40;97.30;;;;;;4942807;29;20122;-83
2022/10/21 10:01:02;;;;;;;11.48;5.88;;;16.50;97.10;;;;;;4959793;28;20097;-82
2022/10/21 10:03:39;;;;;;;9.05;5.80;;;16.60;96.60;;;;;;4942889;29;20023;-83
2022/10/21 10:06:05;;;;;;;9.23;6.18;;;16.70;96.30;;;;;;4959315;29;20467;-84
2022/10/21 10:08:43;;;;;;;12.88;7.30;;;16.60;96.40;;;;;;4978700;28;20027;-83
2022/10/21 10:11:09;;;;;;;16.83;8.00;;;16.40;97.20;;;;;;4970006;28;20349;-81
2022/10/21 10:13:37;;;;;;;10.52;7.78;;;16.20;97.40;;;;;;4965109;28;20030;-82
2022/10/21 10:16:21;;;;;;;12.23;7.65;;;16.10;97.30;;;;;;4977480;28;20031;-83
2022/10/21 10:18:48;;;;;;;19.95;8.65;;;16.00;97.50;;;;;;4951149;28;20034;-82
2022/10/21 10:21:17;;;;;;;13.77;8.38;;;15.90;97.40;;;;;;4963974;29;20055;-83
2022/10/21 10:23:53;;;;;;;16.98;9.07;;;15.90;97.60;;;;;;4960437;29;20051;-82
2022/10/21 10:26:30;;;;;;;13.27;8.90;;;15.80;97.60;;;;;;4960062;29;20304;-83
2022/10/21 10:28:59;;;;;;;12.73;8.55;;;15.70;97.70;;;;;;4971824;28;20031;-85
2022/10/21 10:31:31;;;;;;;19.95;7.90;;;15.60;97.80;;;;;;4993747;28;20079;-83
2022/10/21 10:34:02;;;;;;;17.23;9.18;;;15.40;98.40;;;;;;4976580;28;20010;-86
2022/10/21 10:36:32;;;;;;;14.32;8.63;;;15.30;98.80;;;;;;4995179;28;20019;-85
2022/10/21 10:39:00;;;;;;;11.18;8.07;;;15.20;99.20;;;;;;4993152;28;20094;-86
2022/10/21 10:41:39;;;;;;;16.92;9.27;;;15.10;99.70;;;;;;4996619;28;20019;-86
2022/10/21 10:44:23;;;;;;;16.77;8.55;;;15.00;99.90;;;;;;4978785;28;20035;-84
2022/10/21 10:46:56;;;;;;;14.82;8.35;;;15.00;99.90;;;;;;4978160;28;20047;-84
2022/10/21 10:49:23;;;;;;;12.48;8.10;;;14.90;99.90;;;;;;4980901;28;20031;-84
2022/10/21 10:52:15;;;;;;;13.60;8.75;;;14.90;99.90;;;;;;4999576;28;20046;-83
2022/10/21 10:54:42;;;;;;;8.13;7.03;;;14.90;99.90;;;;;;4973433;28;20082;-82
2022/10/21 10:57:24;;;;;;;16.95;8.07;;;15.00;99.90;;;;;;4971857;28;20098;-83
2022/10/21 11:00:12;;;;;;;10.50;6.53;;;15.20;99.90;;;;;;4963407;28;20038;-83
2022/10/21 11:03:07;;;;;;;7.32;5.45;;;15.30;99.90;;;;;;4999261;28;20043;-85
2022/10/21 11:05:52;;;;;;;8.73;6.20;;;15.40;99.90;;;;;;4981887;28;20027;-84
2022/10/21 11:08:40;;;;;;;9.13;7.03;;;15.50;99.90;;;;;;5000172;28;20023;-84
2022/10/21 11:11:25;;;;;;;12.73;7.47;;;15.60;99.70;;;;;;4997865;28;20507;-85
2022/10/21 11:13:52;;;;;;;12.93;8.25;;;15.60;99.40;;;;;;4940709;28;20059;-82
2022/10/21 11:16:26;;;;;;;11.25;6.90;;;15.40;99.50;;;;;;4967105;28;20155;-84
2022/10/21 11:19:09;;;;;;;14.48;7.90;;;15.40;99.80;;;;;;4987246;28;20034;-84
2022/10/21 11:22:11;;;;;;;7.97;6.45;;;15.40;99.90;;;;;;4969302;28;20038;-84
2022/10/21 11:25:22;;;;;;;7.60;6.05;;;15.40;99.90;;;;;;4979830;28;20062;-85
2022/10/21 11:28:09;;;;;;;11.38;6.65;;;15.50;99.90;;;;;;4925980;29;20054;-83
2022/10/21 11:31:13;;;;;;;14.80;7.82;;;15.60;99.90;;;;;;4904073;29;20161;-83
2022/10/21 11:37:45;;;;;;;10.35;6.32;;;15.90;99.80;;;;;;4966374;29;20038;-82
2022/10/21 11:40:49;;;;;;;8.73;5.85;;;16.00;99.50;;;;;;4965054;29;20035;-82
2022/10/21 11:43:53;;;;;;;11.05;6.22;;;16.00;99.40;;;;;;4977298;28;20054;-83
2022/10/21 11:46:58;;;;;;;8.52;5.35;;;16.00;99.50;;;;;;4937603;28;20027;-82
2022/10/21 11:50:01;;;;;;;7.18;5.30;;;15.80;99.80;;;;;;4927358;29;20067;-84
2022/10/21 11:53:25;;;;;;;11.65;5.82;;;15.80;99.90;;;;;;4972773;28;20031;-84
2022/10/21 11:56:43;;;;;;;7.38;5.22;;;15.70;99.90;;;;;;4935740;28;20070;-84
2022/10/21 12:00:06;;;;;;;9.52;4.75;;;15.70;99.90;;;;;;4981055;28;20035;-83
2022/10/21 12:03:36;;;;;;;;;;;15.80;99.90;;;;;;4987080;28;20035;-85
2022/10/21 12:06:54;;;;;;;13.88;5.28;;;15.90;99.90;;;;;;4927695;29;19911;-83
2022/10/21 12:10:18;;;;;;;8.18;3.63;;;15.90;99.90;;;;;;4883438;29;20034;-82
2022/10/21 12:12:59;;;;;;;6.85;4.70;;;16.10;99.90;;;;;;4863851;29;20122;-83
2022/10/21 12:15:57;;;;;;;9.43;4.35;;;16.40;99.70;;;;;;4864471;29;20045;-84
2022/10/21 12:18:50;;;;;;;9.15;4.35;;;16.60;99.10;;;;;;4894004;29;20069;-84
2022/10/21 12:22:34;;;;;;;10.90;4.60;;;16.90;98.40;;;;;;4862877;29;20038;-83
2022/10/21 12:25:58;;;;;;;9.13;6.03;;;17.30;97.40;;;;;;4808790;29;20131;-83
2022/10/21 12:29:29;;;;;;;11.10;4.50;;;17.50;96.20;;;;;;4812690;29;20027;-83
2022/10/21 12:32:53;;;;;;;8.30;4.43;;;17.70;95.70;;;;;;4813136;29;20031;-83
2022/10/21 12:36:05;;;;;;;8.73;5.05;;;17.70;95.10;;;;;;4916631;29;20040;-84
2022/10/21 12:39:33;;;;;;;6.88;4.40;;;17.70;95.20;;;;;;4910872;29;20021;-83
2022/10/21 12:42:49;;;;;;;11.00;3.30;;;17.80;94.80;;;;;;4863035;29;20022;-83
2022/10/21 12:46:03;;;;;;;8.23;3.92;;;17.80;94.60;;;;;;4869935;29;20049;-83
2022/10/21 12:49:06;;;;;;;6.80;3.88;;;18.00;94.00;;;;;;4914602;29;20047;-84
2022/10/21 12:52:11;;;;;;;4.50;3.15;;;18.00;93.50;;;;;;4918582;29;20048;-83
2022/10/21 12:55:07;;;;;;;6.53;3.85;;;18.20;92.80;;;;;;4898547;29;20151;-83
2022/10/21 12:58:03;;;;;;;9.55;3.55;;;18.20;92.40;;;;;;4868135;29;20082;-83
2022/10/21 13:00:43;;;;;;;6.75;2.80;;;18.20;92.50;;;;;;4899972;29;20141;-83
2022/10/21 13:03:38;;;;;;;4.15;2.67;;;18.10;92.20;;;;;;4918181;29;20530;-86
2022/10/21 13:06:12;;;;;;;5.68;3.20;;;18.10;92.40;;;;;;4952012;29;20087;-85
2022/10/21 13:08:55;;;;;;;6.70;3.10;;;18.10;92.30;;;;;;4964964;28;20035;-85
2022/10/21 13:12:06;;;;;;;5.07;2.90;;;18.20;92.20;;;;;;4956035;28;20086;-85
2022/10/21 13:15:21;;;;;;;8.10;3.35;;;18.10;91.90;;;;;;4944433;28;20043;-85
2022/10/21 13:18:06;;;;;;;4.25;2.72;;;18.10;91.90;;;;;;4970835;28;20103;-87
2022/10/21 13:20:37;;;;;;;4.57;2.42;;;18.10;91.90;;;;;;4965877;28;20038;-86
2022/10/21 13:23:32;;;;;;;5.70;3.00;;;18.00;92.10;;;;;;4980318;28;20523;-84
2022/10/21 13:26:26;;;;;;;4.63;2.92;;;18.00;92.20;;;;;;4977240;28;20039;-85
2022/10/21 13:29:00;;;;;;;6.88;3.15;;;17.90;92.40;;;;;;4957544;28;20214;-85
2022/10/21 13:31:26;;;;;;;5.78;2.70;;;17.80;92.50;;;;;;4963084;28;20039;-86
2022/10/21 13:34:27;;;;;;;5.10;2.70;;;17.80;92.60;;;;;;4984673;28;20418;-86
2022/10/21 13:36:55;;;;;;;2.78;2.17;;;17.70;92.70;;;;;;4982644;28;20094;-86
2022/10/21 13:39:26;;;;;;;5.07;2.30;;;17.70;92.90;;;;;;4967797;28;20033;-86
2022/10/21 13:42:05;;;;;;;7.15;3.08;;;17.70;93.00;;;;;;4963851;28;20046;-85
2022/10/21 13:44:40;;;;;;;5.10;2.63;;;17.60;93.30;;;;;;4981454;28;20042;-84
2022/10/21 13:47:53;;;;;;;5.70;2.78;;;17.60;93.50;;;;;;4968764;28;20098;-85
2022/10/21 13:51:14;;;;;;;6.28;2.20;;;17.50;93.70;;;;;;4939542;28;20548;-86
2022/10/21 13:54:44;;;;;;;5.40;2.30;;;17.30;94.40;;;;;;4953281;29;20035;-85
2022/10/21 13:57:47;;;;;;;6.15;2.38;;;17.00;95.30;;;;;;4990880;28;20077;-85